sensor_id;sensor_type;location;lat;lon;timestamp;P1;durP1;ratioP1;P2;durP2;ratioP2
46391;SDS011;32098;49.448;7.904;2023-04-21T00:01:44;24.40;;;17.67;;
46391;SDS011;32098;49.448;7.904;2023-04-21T00:04:11;20.30;;;16.53;;
46391;SDS011;32098;49.448;7.904;2023-04-21T00:09:47;24.27;;;17.00;;
46391;SDS011;32098;49.448;7.904;2023-04-21T00:12:14;21.50;;;17.10;;
46391;SDS011;32098;49.448;7.904;2023-04-21T00:14:41;21.80;;;15.90;;
46391;SDS011;32098;49.448;7.904;2023-04-21T00:17:08;22.20;;;16.57;;
46391;SDS011;32098;49.448;7.904;2023-04-21T00:22:24;23.13;;;17.13;;
46391;SDS011;32098;49.448;7.904;2023-04-21T00:24:50;20.90;;;16.70;;
46391;SDS011;32098;49.448;7.904;2023-04-21T00:27:18;21.40;;;17.30;;
46391;SDS011;32098;49.448;7.904;2023-04-21T00:29:45;23.03;;;17.00;;
46391;SDS011;32098;49.448;7.904;2023-04-21T00:32:14;24.43;;;17.20;;
46391;SDS011;32098;49.448;7.904;2023-04-21T00:38:41;21.33;;;15.93;;
46391;SDS011;32098;49.448;7.904;2023-04-21T00:41:08;21.87;;;15.97;;
46391;SDS011;32098;49.448;7.904;2023-04-21T00:47:36;21.37;;;15.50;;
46391;SDS011;32098;49.448;7.904;2023-04-21T00:50:03;23.30;;;17.97;;
46391;SDS011;32098;49.448;7.904;2023-04-21T00:52:30;23.53;;;17.33;;
46391;SDS011;32098;49.448;7.904;2023-04-21T00:54:58;21.00;;;16.37;;
46391;SDS011;32098;49.448;7.904;2023-04-21T00:57:25;23.57;;;17.13;;
46391;SDS011;32098;49.448;7.904;2023-04-21T01:03:53;21.87;;;16.40;;
46391;SDS011;32098;49.448;7.904;2023-04-21T01:06:20;20.77;;;16.57;;
46391;SDS011;32098;49.448;7.904;2023-04-21T01:08:46;22.13;;;16.80;;
46391;SDS011;32098;49.448;7.904;2023-04-21T01:11:14;21.57;;;16.17;;
46391;SDS011;32098;49.448;7.904;2023-04-21T01:13:42;22.83;;;18.13;;
46391;SDS011;32098;49.448;7.904;2023-04-21T01:20:10;25.17;;;16.63;;
46391;SDS011;32098;49.448;7.904;2023-04-21T01:22:39;23.30;;;17.80;;
46391;SDS011;32098;49.448;7.904;2023-04-21T01:25:08;24.17;;;17.90;;
46391;SDS011;32098;49.448;7.904;2023-04-21T01:27:40;24.20;;;18.70;;
46391;SDS011;32098;49.448;7.904;2023-04-21T01:30:07;25.83;;;18.17;;
46391;SDS011;32098;49.448;7.904;2023-04-21T01:32:35;25.17;;;18.10;;
46391;SDS011;32098;49.448;7.904;2023-04-21T01:35:02;23.37;;;18.23;;
46391;SDS011;32098;49.448;7.904;2023-04-21T01:37:31;26.60;;;18.73;;
46391;SDS011;32098;49.448;7.904;2023-04-21T01:39:59;24.37;;;18.20;;
46391;SDS011;32098;49.448;7.904;2023-04-21T01:42:32;23.13;;;17.40;;
46391;SDS011;32098;49.448;7.904;2023-04-21T01:45:01;23.70;;;17.40;;
46391;SDS011;32098;49.448;7.904;2023-04-21T01:47:28;23.40;;;19.07;;
46391;SDS011;32098;49.448;7.904;2023-04-21T01:49:55;25.30;;;17.80;;
46391;SDS011;32098;49.448;7.904;2023-04-21T01:52:22;24.87;;;18.50;;
46391;SDS011;32098;49.448;7.904;2023-04-21T01:54:52;24.57;;;17.63;;
46391;SDS011;32098;49.448;7.904;2023-04-21T01:57:19;23.77;;;17.27;;
46391;SDS011;32098;49.448;7.904;2023-04-21T01:59:46;22.83;;;17.10;;
46391;SDS011;32098;49.448;7.904;2023-04-21T02:02:14;23.07;;;17.27;;
46391;SDS011;32098;49.448;7.904;2023-04-21T02:08:42;23.20;;;16.97;;
46391;SDS011;32098;49.448;7.904;2023-04-21T02:11:09;22.87;;;16.53;;
46391;SDS011;32098;49.448;7.904;2023-04-21T02:13:53;22.90;;;17.43;;
46391;SDS011;32098;49.448;7.904;2023-04-21T02:16:21;23.70;;;16.77;;
46391;SDS011;32098;49.448;7.904;2023-04-21T02:21:45;22.53;;;17.07;;
46391;SDS011;32098;49.448;7.904;2023-04-21T02:24:12;22.97;;;16.53;;
46391;SDS011;32098;49.448;7.904;2023-04-21T02:26:39;22.70;;;16.30;;
46391;SDS011;32098;49.448;7.904;2023-04-21T02:32:13;21.90;;;16.47;;
46391;SDS011;32098;49.448;7.904;2023-04-21T02:34:50;22.93;;;16.93;;
46391;SDS011;32098;49.448;7.904;2023-04-21T02:37:19;22.40;;;16.90;;
46391;SDS011;32098;49.448;7.904;2023-04-21T02:39:46;21.47;;;16.27;;
46391;SDS011;32098;49.448;7.904;2023-04-21T02:42:13;21.63;;;16.20;;
46391;SDS011;32098;49.448;7.904;2023-04-21T02:44:40;20.83;;;15.70;;
46391;SDS011;32098;49.448;7.904;2023-04-21T02:51:11;23.00;;;16.70;;
46391;SDS011;32098;49.448;7.904;2023-04-21T02:53:39;20.10;;;16.00;;
46391;SDS011;32098;49.448;7.904;2023-04-21T02:56:07;23.33;;;17.33;;
46391;SDS011;32098;49.448;7.904;2023-04-21T02:58:35;21.87;;;16.57;;
46391;SDS011;32098;49.448;7.904;2023-04-21T03:01:02;23.97;;;17.43;;
46391;SDS011;32098;49.448;7.904;2023-04-21T03:03:30;23.50;;;17.53;;
46391;SDS011;32098;49.448;7.904;2023-04-21T03:05:58;23.10;;;17.30;;
46391;SDS011;32098;49.448;7.904;2023-04-21T03:08:27;24.43;;;17.60;;
46391;SDS011;32098;49.448;7.904;2023-04-21T03:18:14;22.97;;;16.27;;
46391;SDS011;32098;49.448;7.904;2023-04-21T03:20:42;24.33;;;17.00;;
46391;SDS011;32098;49.448;7.904;2023-04-21T03:23:08;26.27;;;18.37;;
46391;SDS011;32098;49.448;7.904;2023-04-21T03:25:36;25.33;;;18.30;;
46391;SDS011;32098;49.448;7.904;2023-04-21T03:28:04;27.47;;;18.93;;
46391;SDS011;32098;49.448;7.904;2023-04-21T03:30:31;25.77;;;18.63;;
46391;SDS011;32098;49.448;7.904;2023-04-21T03:33:03;27.93;;;18.27;;
46391;SDS011;32098;49.448;7.904;2023-04-21T03:35:31;25.30;;;18.47;;
46391;SDS011;32098;49.448;7.904;2023-04-21T03:44:33;25.37;;;18.37;;
46391;SDS011;32098;49.448;7.904;2023-04-21T03:51:30;24.43;;;17.33;;
46391;SDS011;32098;49.448;7.904;2023-04-21T04:00:51;26.70;;;19.77;;
46391;SDS011;32098;49.448;7.904;2023-04-21T04:03:18;28.93;;;20.20;;
46391;SDS011;32098;49.448;7.904;2023-04-21T04:10:13;26.70;;;18.83;;
46391;SDS011;32098;49.448;7.904;2023-04-21T04:13:30;27.17;;;19.63;;
46391;SDS011;32098;49.448;7.904;2023-04-21T04:17:12;28.40;;;19.33;;
46391;SDS011;32098;49.448;7.904;2023-04-21T04:19:40;28.03;;;19.20;;
46391;SDS011;32098;49.448;7.904;2023-04-21T04:22:07;27.73;;;20.50;;
46391;SDS011;32098;49.448;7.904;2023-04-21T04:24:34;30.73;;;21.20;;
46391;SDS011;32098;49.448;7.904;2023-04-21T04:27:01;31.03;;;22.27;;
46391;SDS011;32098;49.448;7.904;2023-04-21T04:29:37;29.03;;;20.33;;
46391;SDS011;32098;49.448;7.904;2023-04-21T04:36:19;31.30;;;20.43;;
46391;SDS011;32098;49.448;7.904;2023-04-21T04:42:33;30.70;;;19.93;;
46391;SDS011;32098;49.448;7.904;2023-04-21T04:49:27;29.03;;;20.10;;
46391;SDS011;32098;49.448;7.904;2023-04-21T05:04:40;25.07;;;17.80;;
46391;SDS011;32098;49.448;7.904;2023-04-21T05:07:08;24.40;;;17.57;;
46391;SDS011;32098;49.448;7.904;2023-04-21T05:09:34;34.97;;;23.83;;
46391;SDS011;32098;49.448;7.904;2023-04-21T05:12:02;34.77;;;24.70;;
46391;SDS011;32098;49.448;7.904;2023-04-21T05:14:29;32.80;;;22.87;;
46391;SDS011;32098;49.448;7.904;2023-04-21T05:16:56;31.50;;;22.07;;
46391;SDS011;32098;49.448;7.904;2023-04-21T05:19:24;33.80;;;22.70;;
46391;SDS011;32098;49.448;7.904;2023-04-21T05:21:57;34.27;;;22.93;;
46391;SDS011;32098;49.448;7.904;2023-04-21T05:24:27;30.50;;;21.13;;
46391;SDS011;32098;49.448;7.904;2023-04-21T05:26:55;29.80;;;20.80;;
46391;SDS011;32098;49.448;7.904;2023-04-21T05:29:22;32.23;;;19.53;;
46391;SDS011;32098;49.448;7.904;2023-04-21T05:42:00;31.63;;;21.57;;
46391;SDS011;32098;49.448;7.904;2023-04-21T05:44:37;30.13;;;20.53;;
46391;SDS011;32098;49.448;7.904;2023-04-21T05:47:05;30.47;;;19.63;;
46391;SDS011;32098;49.448;7.904;2023-04-21T05:49:33;28.07;;;19.23;;
46391;SDS011;32098;49.448;7.904;2023-04-21T05:52:00;30.53;;;19.83;;
46391;SDS011;32098;49.448;7.904;2023-04-21T05:54:27;29.77;;;19.47;;
46391;SDS011;32098;49.448;7.904;2023-04-21T05:56:56;30.63;;;20.17;;
46391;SDS011;32098;49.448;7.904;2023-04-21T05:59:23;28.13;;;19.10;;
46391;SDS011;32098;49.448;7.904;2023-04-21T06:01:51;29.53;;;19.17;;
46391;SDS011;32098;49.448;7.904;2023-04-21T06:04:18;29.33;;;20.20;;
46391;SDS011;32098;49.448;7.904;2023-04-21T06:06:46;27.50;;;18.67;;
46391;SDS011;32098;49.448;7.904;2023-04-21T06:09:13;29.67;;;20.30;;
46391;SDS011;32098;49.448;7.904;2023-04-21T06:11:41;28.90;;;20.03;;
46391;SDS011;32098;49.448;7.904;2023-04-21T06:14:08;30.70;;;20.57;;
46391;SDS011;32098;49.448;7.904;2023-04-21T06:16:35;27.37;;;18.50;;
46391;SDS011;32098;49.448;7.904;2023-04-21T06:23:04;27.17;;;18.10;;
46391;SDS011;32098;49.448;7.904;2023-04-21T06:25:36;27.37;;;18.80;;
46391;SDS011;32098;49.448;7.904;2023-04-21T06:28:06;27.77;;;18.60;;
46391;SDS011;32098;49.448;7.904;2023-04-21T06:30:33;26.10;;;18.07;;
46391;SDS011;32098;49.448;7.904;2023-04-21T06:33:00;27.63;;;18.47;;
46391;SDS011;32098;49.448;7.904;2023-04-21T06:35:28;25.23;;;17.67;;
46391;SDS011;32098;49.448;7.904;2023-04-21T06:37:57;25.10;;;17.40;;
46391;SDS011;32098;49.448;7.904;2023-04-21T06:40:24;27.57;;;19.07;;
46391;SDS011;32098;49.448;7.904;2023-04-21T06:43:14;24.57;;;16.90;;
46391;SDS011;32098;49.448;7.904;2023-04-21T06:46:06;22.90;;;16.07;;
46391;SDS011;32098;49.448;7.904;2023-04-21T06:48:33;24.50;;;17.47;;
46391;SDS011;32098;49.448;7.904;2023-04-21T06:51:01;23.27;;;16.60;;
46391;SDS011;32098;49.448;7.904;2023-04-21T06:53:28;24.33;;;17.40;;
46391;SDS011;32098;49.448;7.904;2023-04-21T06:56:02;24.13;;;16.60;;
46391;SDS011;32098;49.448;7.904;2023-04-21T06:58:29;24.07;;;16.83;;
46391;SDS011;32098;49.448;7.904;2023-04-21T07:00:56;22.43;;;16.47;;
46391;SDS011;32098;49.448;7.904;2023-04-21T07:03:24;19.33;;;14.87;;
46391;SDS011;32098;49.448;7.904;2023-04-21T07:05:54;20.00;;;14.83;;
46391;SDS011;32098;49.448;7.904;2023-04-21T07:08:21;21.57;;;15.73;;
46391;SDS011;32098;49.448;7.904;2023-04-21T07:10:48;19.83;;;14.53;;
46391;SDS011;32098;49.448;7.904;2023-04-21T07:13:35;21.23;;;15.07;;
46391;SDS011;32098;49.448;7.904;2023-04-21T07:16:02;17.83;;;13.53;;
46391;SDS011;32098;49.448;7.904;2023-04-21T07:18:31;18.00;;;13.93;;
46391;SDS011;32098;49.448;7.904;2023-04-21T07:21:00;17.80;;;13.67;;
46391;SDS011;32098;49.448;7.904;2023-04-21T07:23:27;15.83;;;12.73;;
46391;SDS011;32098;49.448;7.904;2023-04-21T07:25:56;14.93;;;11.40;;
46391;SDS011;32098;49.448;7.904;2023-04-21T07:28:23;16.90;;;12.37;;
46391;SDS011;32098;49.448;7.904;2023-04-21T07:30:50;13.43;;;10.37;;
46391;SDS011;32098;49.448;7.904;2023-04-21T07:36:35;12.67;;;10.43;;
46391;SDS011;32098;49.448;7.904;2023-04-21T07:39:03;13.60;;;10.60;;
46391;SDS011;32098;49.448;7.904;2023-04-21T07:45:12;10.67;;;8.50;;
46391;SDS011;32098;49.448;7.904;2023-04-21T07:48:29;10.67;;;8.60;;
46391;SDS011;32098;49.448;7.904;2023-04-21T07:50:59;11.53;;;8.70;;
46391;SDS011;32098;49.448;7.904;2023-04-21T07:53:28;12.23;;;10.03;;
46391;SDS011;32098;49.448;7.904;2023-04-21T07:55:56;10.50;;;8.30;;
46391;SDS011;32098;49.448;7.904;2023-04-21T07:58:24;9.37;;;8.03;;
46391;SDS011;32098;49.448;7.904;2023-04-21T08:00:51;10.00;;;8.10;;
46391;SDS011;32098;49.448;7.904;2023-04-21T08:03:18;9.67;;;8.30;;
46391;SDS011;32098;49.448;7.904;2023-04-21T08:05:49;8.87;;;7.90;;
46391;SDS011;32098;49.448;7.904;2023-04-21T08:08:17;8.87;;;6.93;;
46391;SDS011;32098;49.448;7.904;2023-04-21T08:10:46;7.50;;;6.50;;
46391;SDS011;32098;49.448;7.904;2023-04-21T08:13:13;8.27;;;7.13;;
46391;SDS011;32098;49.448;7.904;2023-04-21T08:15:52;7.23;;;6.53;;
46391;SDS011;32098;49.448;7.904;2023-04-21T08:18:20;7.85;;;6.82;;
46391;SDS011;32098;49.448;7.904;2023-04-21T08:20:49;7.47;;;5.80;;
46391;SDS011;32098;49.448;7.904;2023-04-21T08:23:17;7.30;;;6.45;;
46391;SDS011;32098;49.448;7.904;2023-04-21T08:25:47;8.00;;;6.20;;
46391;SDS011;32098;49.448;7.904;2023-04-21T08:28:14;8.20;;;6.30;;
46391;SDS011;32098;49.448;7.904;2023-04-21T08:30:41;8.15;;;6.68;;
46391;SDS011;32098;49.448;7.904;2023-04-21T08:33:08;6.15;;;5.25;;
46391;SDS011;32098;49.448;7.904;2023-04-21T08:35:39;6.05;;;5.10;;
46391;SDS011;32098;49.448;7.904;2023-04-21T08:38:26;5.20;;;4.70;;
46391;SDS011;32098;49.448;7.904;2023-04-21T08:40:53;5.88;;;4.75;;
46391;SDS011;32098;49.448;7.904;2023-04-21T08:47:21;5.88;;;4.60;;
46391;SDS011;32098;49.448;7.904;2023-04-21T08:49:50;8.18;;;5.95;;
46391;SDS011;32098;49.448;7.904;2023-04-21T08:52:34;4.65;;;4.05;;
46391;SDS011;32098;49.448;7.904;2023-04-21T08:55:01;4.90;;;4.45;;
46391;SDS011;32098;49.448;7.904;2023-04-21T08:57:29;5.18;;;4.68;;
46391;SDS011;32098;49.448;7.904;2023-04-21T09:00:00;4.70;;;4.25;;
46391;SDS011;32098;49.448;7.904;2023-04-21T09:02:27;4.15;;;3.75;;
46391;SDS011;32098;49.448;7.904;2023-04-21T09:04:54;4.82;;;3.40;;
46391;SDS011;32098;49.448;7.904;2023-04-21T09:07:30;4.32;;;3.92;;
46391;SDS011;32098;49.448;7.904;2023-04-21T09:09:57;3.47;;;2.90;;
46391;SDS011;32098;49.448;7.904;2023-04-21T09:12:28;3.78;;;3.03;;
46391;SDS011;32098;49.448;7.904;2023-04-21T09:14:55;3.20;;;2.63;;
46391;SDS011;32098;49.448;7.904;2023-04-21T09:20:21;2.92;;;2.63;;
46391;SDS011;32098;49.448;7.904;2023-04-21T09:22:48;2.42;;;2.05;;
46391;SDS011;32098;49.448;7.904;2023-04-21T09:25:19;3.15;;;2.15;;
46391;SDS011;32098;49.448;7.904;2023-04-21T09:27:47;2.40;;;2.00;;
46391;SDS011;32098;49.448;7.904;2023-04-21T09:30:17;1.92;;;1.70;;
46391;SDS011;32098;49.448;7.904;2023-04-21T09:32:45;2.50;;;2.30;;
46391;SDS011;32098;49.448;7.904;2023-04-21T09:35:15;1.80;;;1.70;;
46391;SDS011;32098;49.448;7.904;2023-04-21T09:37:42;2.75;;;2.10;;
46391;SDS011;32098;49.448;7.904;2023-04-21T09:40:13;1.88;;;1.75;;
46391;SDS011;32098;49.448;7.904;2023-04-21T09:42:56;2.03;;;1.83;;
46391;SDS011;32098;49.448;7.904;2023-04-21T09:45:24;3.50;;;1.90;;
46391;SDS011;32098;49.448;7.904;2023-04-21T09:48:05;2.38;;;2.03;;
46391;SDS011;32098;49.448;7.904;2023-04-21T09:50:35;2.08;;;1.90;;
46391;SDS011;32098;49.448;7.904;2023-04-21T09:53:13;2.67;;;2.20;;
46391;SDS011;32098;49.448;7.904;2023-04-21T09:55:42;2.67;;;2.15;;
46391;SDS011;32098;49.448;7.904;2023-04-21T09:58:13;2.38;;;1.48;;
46391;SDS011;32098;49.448;7.904;2023-04-21T10:00:43;1.63;;;1.52;;
46391;SDS011;32098;49.448;7.904;2023-04-21T10:05:54;1.67;;;1.17;;
46391;SDS011;32098;49.448;7.904;2023-04-21T10:08:23;3.63;;;1.50;;
46391;SDS011;32098;49.448;7.904;2023-04-21T10:10:50;1.50;;;1.40;;
46391;SDS011;32098;49.448;7.904;2023-04-21T10:13:18;2.05;;;1.20;;
46391;SDS011;32098;49.448;7.904;2023-04-21T10:15:47;0.95;;;0.95;;
46391;SDS011;32098;49.448;7.904;2023-04-21T10:18:18;0.80;;;0.80;;
46391;SDS011;32098;49.448;7.904;2023-04-21T10:21:02;1.33;;;0.80;;
46391;SDS011;32098;49.448;7.904;2023-04-21T10:23:38;1.30;;;1.00;;
46391;SDS011;32098;49.448;7.904;2023-04-21T10:29:09;1.20;;;1.00;;
46391;SDS011;32098;49.448;7.904;2023-04-21T10:34:17;1.80;;;0.77;;
46391;SDS011;32098;49.448;7.904;2023-04-21T10:42:22;0.70;;;0.70;;
46391;SDS011;32098;49.448;7.904;2023-04-21T10:47:26;1.63;;;1.10;;
46391;SDS011;32098;49.448;7.904;2023-04-21T10:49:56;0.60;;;0.60;;
46391;SDS011;32098;49.448;7.904;2023-04-21T10:52:30;0.60;;;0.60;;
46391;SDS011;32098;49.448;7.904;2023-04-21T10:55:03;0.60;;;0.60;;
46391;SDS011;32098;49.448;7.904;2023-04-21T10:57:32;0.90;;;0.90;;
46391;SDS011;32098;49.448;7.904;2023-04-21T11:00:01;0.85;;;0.85;;
46391;SDS011;32098;49.448;7.904;2023-04-21T11:02:32;0.60;;;0.60;;
46391;SDS011;32098;49.448;7.904;2023-04-21T11:05:05;1.08;;;0.70;;
46391;SDS011;32098;49.448;7.904;2023-04-21T11:07:35;1.00;;;0.80;;
46391;SDS011;32098;49.448;7.904;2023-04-21T11:17:02;1.10;;;1.10;;
46391;SDS011;32098;49.448;7.904;2023-04-21T11:19:33;2.10;;;1.10;;
46391;SDS011;32098;49.448;7.904;2023-04-21T11:22:00;1.00;;;0.90;;
46391;SDS011;32098;49.448;7.904;2023-04-21T11:24:27;1.02;;;0.90;;
46391;SDS011;32098;49.448;7.904;2023-04-21T11:34:24;1.95;;;1.70;;
46391;SDS011;32098;49.448;7.904;2023-04-21T11:40:22;1.80;;;1.50;;
46391;SDS011;32098;49.448;7.904;2023-04-21T11:50:03;2.30;;;1.92;;
46391;SDS011;32098;49.448;7.904;2023-04-21T11:52:31;2.63;;;2.42;;
46391;SDS011;32098;49.448;7.904;2023-04-21T12:23:01;6.38;;;5.15;;
46391;SDS011;32098;49.448;7.904;2023-04-21T12:28:28;6.75;;;6.00;;
46391;SDS011;32098;49.448;7.904;2023-04-21T12:30:55;6.05;;;5.00;;
46391;SDS011;32098;49.448;7.904;2023-04-21T12:33:24;7.93;;;6.18;;
46391;SDS011;32098;49.448;7.904;2023-04-21T12:35:51;7.43;;;5.65;;
46391;SDS011;32098;49.448;7.904;2023-04-21T12:38:18;7.82;;;6.28;;
46391;SDS011;32098;49.448;7.904;2023-04-21T12:45:19;8.65;;;7.20;;
46391;SDS011;32098;49.448;7.904;2023-04-21T12:55:21;8.35;;;6.90;;
46391;SDS011;32098;49.448;7.904;2023-04-21T13:03:41;9.73;;;7.45;;
46391;SDS011;32098;49.448;7.904;2023-04-21T13:06:09;10.40;;;6.75;;
46391;SDS011;32098;49.448;7.904;2023-04-21T13:08:36;10.38;;;7.60;;
46391;SDS011;32098;49.448;7.904;2023-04-21T13:11:03;11.00;;;8.55;;
46391;SDS011;32098;49.448;7.904;2023-04-21T13:13:30;9.95;;;7.78;;
46391;SDS011;32098;49.448;7.904;2023-04-21T13:15:58;9.32;;;7.10;;
46391;SDS011;32098;49.448;7.904;2023-04-21T13:18:31;7.65;;;5.90;;
46391;SDS011;32098;49.448;7.904;2023-04-21T13:21:00;7.40;;;5.90;;
46391;SDS011;32098;49.448;7.904;2023-04-21T13:23:27;10.35;;;7.75;;
46391;SDS011;32098;49.448;7.904;2023-04-21T13:25:57;9.75;;;6.80;;
46391;SDS011;32098;49.448;7.904;2023-04-21T13:28:25;7.45;;;6.13;;
46391;SDS011;32098;49.448;7.904;2023-04-21T13:30:52;8.68;;;6.30;;
46391;SDS011;32098;49.448;7.904;2023-04-21T13:33:38;8.25;;;6.38;;
46391;SDS011;32098;49.448;7.904;2023-04-21T13:36:06;7.68;;;6.20;;
46391;SDS011;32098;49.448;7.904;2023-04-21T13:38:38;8.40;;;5.57;;
46391;SDS011;32098;49.448;7.904;2023-04-21T13:44:06;9.07;;;6.50;;
46391;SDS011;32098;49.448;7.904;2023-04-21T13:46:35;6.22;;;5.47;;
46391;SDS011;32098;49.448;7.904;2023-04-21T13:49:03;6.35;;;5.35;;
46391;SDS011;32098;49.448;7.904;2023-04-21T13:51:31;7.18;;;5.88;;
46391;SDS011;32098;49.448;7.904;2023-04-21T13:53:58;6.82;;;5.40;;
46391;SDS011;32098;49.448;7.904;2023-04-21T14:00:26;8.25;;;6.03;;
46391;SDS011;32098;49.448;7.904;2023-04-21T14:02:53;6.88;;;5.53;;
46391;SDS011;32098;49.448;7.904;2023-04-21T14:05:21;6.72;;;6.03;;
46391;SDS011;32098;49.448;7.904;2023-04-21T14:07:48;7.25;;;5.22;;
46391;SDS011;32098;49.448;7.904;2023-04-21T14:13:06;7.38;;;6.40;;
46391;SDS011;32098;49.448;7.904;2023-04-21T14:15:40;6.43;;;5.70;;
46391;SDS011;32098;49.448;7.904;2023-04-21T14:18:07;8.88;;;5.18;;
46391;SDS011;32098;49.448;7.904;2023-04-21T14:20:34;5.47;;;4.97;;
46391;SDS011;32098;49.448;7.904;2023-04-21T14:23:01;6.45;;;5.07;;
46391;SDS011;32098;49.448;7.904;2023-04-21T14:25:28;5.78;;;5.20;;
46391;SDS011;32098;49.448;7.904;2023-04-21T14:32:05;5.43;;;4.82;;
46391;SDS011;32098;49.448;7.904;2023-04-21T14:34:32;6.55;;;4.55;;
46391;SDS011;32098;49.448;7.904;2023-04-21T14:36:59;7.28;;;5.97;;
46391;SDS011;32098;49.448;7.904;2023-04-21T14:39:26;5.90;;;5.30;;
46391;SDS011;32098;49.448;7.904;2023-04-21T14:41:57;9.57;;;7.28;;
46391;SDS011;32098;49.448;7.904;2023-04-21T14:44:28;6.72;;;6.03;;
46391;SDS011;32098;49.448;7.904;2023-04-21T14:47:00;7.40;;;5.93;;
46391;SDS011;32098;49.448;7.904;2023-04-21T14:49:36;8.30;;;6.20;;
46391;SDS011;32098;49.448;7.904;2023-04-21T14:52:04;8.35;;;6.32;;
46391;SDS011;32098;49.448;7.904;2023-04-21T14:57:45;6.32;;;5.55;;
46391;SDS011;32098;49.448;7.904;2023-04-21T15:00:13;7.18;;;5.75;;
46391;SDS011;32098;49.448;7.904;2023-04-21T15:02:45;7.03;;;5.60;;
46391;SDS011;32098;49.448;7.904;2023-04-21T15:05:12;7.05;;;5.20;;
46391;SDS011;32098;49.448;7.904;2023-04-21T15:07:39;9.95;;;6.75;;
46391;SDS011;32098;49.448;7.904;2023-04-21T15:10:18;9.95;;;6.30;;
46391;SDS011;32098;49.448;7.904;2023-04-21T15:12:46;8.55;;;5.97;;
46391;SDS011;32098;49.448;7.904;2023-04-21T15:15:13;7.47;;;6.03;;
46391;SDS011;32098;49.448;7.904;2023-04-21T15:17:39;8.55;;;6.53;;
46391;SDS011;32098;49.448;7.904;2023-04-21T15:23:10;8.80;;;6.90;;
46391;SDS011;32098;49.448;7.904;2023-04-21T15:25:37;6.38;;;5.68;;
46391;SDS011;32098;49.448;7.904;2023-04-21T15:28:08;5.55;;;4.85;;
46391;SDS011;32098;49.448;7.904;2023-04-21T15:30:35;4.85;;;4.35;;
46391;SDS011;32098;49.448;7.904;2023-04-21T15:33:02;4.97;;;3.92;;
46391;SDS011;32098;49.448;7.904;2023-04-21T15:35:30;4.95;;;3.92;;
46391;SDS011;32098;49.448;7.904;2023-04-21T15:37:57;4.70;;;4.20;;
46391;SDS011;32098;49.448;7.904;2023-04-21T15:40:24;4.38;;;3.80;;
46391;SDS011;32098;49.448;7.904;2023-04-21T15:42:51;4.32;;;3.75;;
46391;SDS011;32098;49.448;7.904;2023-04-21T15:45:34;3.88;;;3.50;;
46391;SDS011;32098;49.448;7.904;2023-04-21T15:48:01;7.55;;;4.93;;
46391;SDS011;32098;49.448;7.904;2023-04-21T15:53:13;5.07;;;4.57;;
46391;SDS011;32098;49.448;7.904;2023-04-21T15:55:43;6.18;;;4.82;;
46391;SDS011;32098;49.448;7.904;2023-04-21T15:58:09;5.93;;;5.25;;
46391;SDS011;32098;49.448;7.904;2023-04-21T16:00:39;7.13;;;5.72;;
46391;SDS011;32098;49.448;7.904;2023-04-21T16:03:17;5.70;;;5.07;;
46391;SDS011;32098;49.448;7.904;2023-04-21T16:05:44;6.15;;;5.30;;
46391;SDS011;32098;49.448;7.904;2023-04-21T16:08:16;6.78;;;5.50;;
46391;SDS011;32098;49.448;7.904;2023-04-21T16:10:43;6.03;;;5.43;;
46391;SDS011;32098;49.448;7.904;2023-04-21T16:13:10;5.53;;;2.42;;
46391;SDS011;32098;49.448;7.904;2023-04-21T16:15:37;4.80;;;3.47;;
46391;SDS011;32098;49.448;7.904;2023-04-21T16:18:05;3.88;;;3.05;;
46391;SDS011;32098;49.448;7.904;2023-04-21T16:20:36;4.68;;;2.53;;
46391;SDS011;32098;49.448;7.904;2023-04-21T16:25:50;5.13;;;2.95;;
46391;SDS011;32098;49.448;7.904;2023-04-21T16:28:17;5.10;;;2.60;;
46391;SDS011;32098;49.448;7.904;2023-04-21T16:30:47;5.82;;;3.92;;
46391;SDS011;32098;49.448;7.904;2023-04-21T16:33:26;7.00;;;3.83;;
46391;SDS011;32098;49.448;7.904;2023-04-21T16:35:54;13.90;;;5.47;;
46391;SDS011;32098;49.448;7.904;2023-04-21T16:38:23;10.98;;;5.85;;
46391;SDS011;32098;49.448;7.904;2023-04-21T16:40:50;12.47;;;6.00;;
46391;SDS011;32098;49.448;7.904;2023-04-21T16:43:17;12.17;;;6.07;;
46391;SDS011;32098;49.448;7.904;2023-04-21T16:45:43;9.83;;;5.40;;
46391;SDS011;32098;49.448;7.904;2023-04-21T16:48:10;6.60;;;5.00;;
46391;SDS011;32098;49.448;7.904;2023-04-21T16:53:53;9.80;;;6.20;;
46391;SDS011;32098;49.448;7.904;2023-04-21T16:56:25;10.63;;;6.90;;
46391;SDS011;32098;49.448;7.904;2023-04-21T16:58:59;9.67;;;6.70;;
46391;SDS011;32098;49.448;7.904;2023-04-21T17:01:39;10.10;;;5.93;;
46391;SDS011;32098;49.448;7.904;2023-04-21T17:16:00;6.80;;;4.80;;
46391;SDS011;32098;49.448;7.904;2023-04-21T17:18:31;8.67;;;4.23;;
46391;SDS011;32098;49.448;7.904;2023-04-21T17:29:24;8.00;;;5.87;;
46391;SDS011;32098;49.448;7.904;2023-04-21T17:32:12;8.17;;;5.83;;
46391;SDS011;32098;49.448;7.904;2023-04-21T17:37:41;6.37;;;4.30;;
46391;SDS011;32098;49.448;7.904;2023-04-21T17:43:05;5.90;;;3.65;;
46391;SDS011;32098;49.448;7.904;2023-04-21T17:45:31;6.82;;;4.18;;
46391;SDS011;32098;49.448;7.904;2023-04-21T17:47:58;4.22;;;3.42;;
46391;SDS011;32098;49.448;7.904;2023-04-21T17:50:25;4.53;;;3.42;;
46391;SDS011;32098;49.448;7.904;2023-04-21T17:52:53;5.43;;;3.95;;
46391;SDS011;32098;49.448;7.904;2023-04-21T17:55:20;6.05;;;4.18;;
46391;SDS011;32098;49.448;7.904;2023-04-21T18:05:58;5.03;;;3.70;;
46391;SDS011;32098;49.448;7.904;2023-04-21T18:08:25;5.37;;;3.97;;
46391;SDS011;32098;49.448;7.904;2023-04-21T18:20:53;5.37;;;4.00;;
46391;SDS011;32098;49.448;7.904;2023-04-21T18:23:31;7.83;;;4.90;;
46391;SDS011;32098;49.448;7.904;2023-04-21T18:26:06;6.13;;;4.47;;
46391;SDS011;32098;49.448;7.904;2023-04-21T18:28:34;5.97;;;4.70;;
46391;SDS011;32098;49.448;7.904;2023-04-21T18:31:01;5.50;;;5.00;;
46391;SDS011;32098;49.448;7.904;2023-04-21T18:36:56;5.13;;;4.40;;
46391;SDS011;32098;49.448;7.904;2023-04-21T18:45:14;6.47;;;4.50;;
46391;SDS011;32098;49.448;7.904;2023-04-21T18:47:41;5.63;;;5.03;;
46391;SDS011;32098;49.448;7.904;2023-04-21T18:50:11;10.67;;;6.70;;
46391;SDS011;32098;49.448;7.904;2023-04-21T18:52:37;17.73;;;9.67;;
46391;SDS011;32098;49.448;7.904;2023-04-21T18:55:04;17.37;;;12.17;;
46391;SDS011;32098;49.448;7.904;2023-04-21T18:57:31;18.07;;;11.60;;
46391;SDS011;32098;49.448;7.904;2023-04-21T19:03:22;7.53;;;5.30;;
46391;SDS011;32098;49.448;7.904;2023-04-21T19:05:50;6.07;;;4.13;;
46391;SDS011;32098;49.448;7.904;2023-04-21T19:08:17;15.23;;;4.30;;
46391;SDS011;32098;49.448;7.904;2023-04-21T19:11:16;5.37;;;4.37;;
46391;SDS011;32098;49.448;7.904;2023-04-21T19:16:34;14.50;;;8.60;;
46391;SDS011;32098;49.448;7.904;2023-04-21T19:19:01;15.17;;;9.43;;
46391;SDS011;32098;49.448;7.904;2023-04-21T19:21:29;14.10;;;9.10;;
46391;SDS011;32098;49.448;7.904;2023-04-21T19:27:56;8.07;;;5.70;;
46391;SDS011;32098;49.448;7.904;2023-04-21T19:30:23;6.40;;;5.33;;
46391;SDS011;32098;49.448;7.904;2023-04-21T19:36:57;8.57;;;5.73;;
46391;SDS011;32098;49.448;7.904;2023-04-21T19:39:24;10.47;;;6.40;;
46391;SDS011;32098;49.448;7.904;2023-04-21T19:41:51;10.30;;;6.83;;
46391;SDS011;32098;49.448;7.904;2023-04-21T19:44:18;8.97;;;7.73;;
46391;SDS011;32098;49.448;7.904;2023-04-21T19:50:44;9.40;;;6.23;;
46391;SDS011;32098;49.448;7.904;2023-04-21T19:53:14;9.10;;;6.10;;
46391;SDS011;32098;49.448;7.904;2023-04-21T19:55:53;8.60;;;6.17;;
46391;SDS011;32098;49.448;7.904;2023-04-21T19:58:23;9.30;;;7.17;;
46391;SDS011;32098;49.448;7.904;2023-04-21T20:01:06;9.30;;;6.97;;